createdAt,value
2022-12-26T00:02:27.351Z,98085.69
2022-12-26T00:04:57.573Z,98090.06
2022-12-26T00:07:27.564Z,98088.16
2022-12-26T00:09:58.102Z,98088.38
2022-12-26T00:12:30.753Z,98088.44
2022-12-26T00:15:00.872Z,98086.78
2022-12-26T00:17:30.812Z,98093.69
2022-12-26T00:20:00.755Z,98082.94
2022-12-26T00:22:30.888Z,98084.75
2022-12-26T00:25:00.947Z,98089.50
2022-12-26T00:27:33.563Z,98099.50
2022-12-26T00:30:03.946Z,98100.97
2022-12-26T00:32:33.942Z,98097.47
2022-12-26T00:35:03.923Z,98096.41
2022-12-26T00:37:33.899Z,98089.66
2022-12-26T00:40:04.472Z,98096.84
2022-12-26T00:42:37.113Z,98100.34
2022-12-26T00:45:08.513Z,98103.25
2022-12-26T00:47:38.457Z,98096.84
2022-12-26T00:50:13.406Z,98101.66
2022-12-26T00:52:45.886Z,98098.34
2022-12-26T00:55:15.889Z,98098.19
2022-12-26T00:57:48.511Z,98089.72
2022-12-26T01:00:19.416Z,98088.03
2022-12-26T01:02:49.621Z,98086.50
2022-12-26T01:05:19.887Z,98094.81
2022-12-26T01:08:23.453Z,98100.22
2022-12-26T01:10:42.871Z,98092.56
2022-12-26T01:13:16.256Z,98082.03
2022-12-26T01:15:52.296Z,98083.44
2022-12-26T01:18:23.868Z,98080.34
2022-12-26T01:20:54.389Z,98081.91
2022-12-26T01:23:24.366Z,98092.22
2022-12-26T01:26:16.774Z,98093.81
2022-12-26T01:28:46.899Z,98092.88
2022-12-26T01:31:16.939Z,98086.13
2022-12-26T01:33:47.220Z,98088.13
2022-12-26T01:36:18.754Z,98095.66
2022-12-26T01:38:49.042Z,98096.78
2022-12-26T01:41:22.161Z,98097.13
2022-12-26T01:44:02.293Z,98101.00
2022-12-26T01:46:39.336Z,98109.94
2022-12-26T01:49:19.154Z,98103.28
2022-12-26T01:51:59.412Z,98100.53
2022-12-26T01:54:38.571Z,98097.56
2022-12-26T01:57:19.194Z,98105.47
2022-12-26T01:59:54.096Z,98104.41
2022-12-26T02:02:26.170Z,98106.00
2022-12-26T02:05:10.101Z,98094.19
2022-12-26T02:07:44.748Z,98089.75
2022-12-26T02:10:20.872Z,98102.81
2022-12-26T02:12:53.181Z,98093.19
2022-12-26T02:15:25.929Z,98093.97
2022-12-26T02:17:55.891Z,98087.13
2022-12-26T02:20:29.068Z,98088.81
2022-12-26T02:23:47.802Z,98084.22
2022-12-26T02:27:02.573Z,98095.91
2022-12-26T02:30:06.796Z,98087.69
2022-12-26T02:33:15.717Z,98085.72
2022-12-26T02:36:15.342Z,98091.41
2022-12-26T02:39:02.732Z,98096.41
2022-12-26T02:42:10.708Z,98101.44
2022-12-26T02:45:07.714Z,98114.13
2022-12-26T02:47:56.529Z,98110.97
2022-12-26T02:50:54.270Z,98102.91
2022-12-26T02:53:58.440Z,98100.78
2022-12-26T02:56:52.490Z,98115.50
2022-12-26T02:59:55.865Z,98115.84
2022-12-26T03:02:48.549Z,98110.00
2022-12-26T03:05:44.550Z,98118.47
2022-12-26T03:08:36.294Z,98108.81
2022-12-26T03:11:19.441Z,98100.47
2022-12-26T03:13:52.285Z,98108.97
2022-12-26T03:16:40.152Z,98112.47
2022-12-26T03:19:14.931Z,98107.69
2022-12-26T03:21:50.465Z,98099.06
2022-12-26T03:24:20.816Z,98106.53
2022-12-26T03:26:54.196Z,98113.63
2022-12-26T03:29:39.451Z,98099.53
2022-12-26T03:32:13.330Z,98094.31
2022-12-26T03:34:44.036Z,98095.63
2022-12-26T03:37:47.945Z,98085.66
2022-12-26T03:41:11.470Z,98090.50
2022-12-26T03:44:19.879Z,98080.25
2022-12-26T03:47:28.785Z,98091.56
2022-12-26T03:50:22.907Z,98087.69
2022-12-26T03:53:17.616Z,98089.25
2022-12-26T03:56:11.922Z,98088.53
2022-12-26T03:59:03.519Z,98089.44
2022-12-26T04:01:50.388Z,98091.47
2022-12-26T04:04:35.964Z,98094.50
2022-12-26T04:07:27.516Z,98093.19
2022-12-26T04:10:20.370Z,98090.13
2022-12-26T04:13:06.797Z,98090.03
2022-12-26T04:15:59.621Z,98095.38
2022-12-26T04:18:52.387Z,98105.63
2022-12-26T04:21:45.611Z,98104.72
2022-12-26T04:24:35.479Z,98110.66
2022-12-26T04:27:25.483Z,98114.25
2022-12-26T04:30:08.114Z,98108.78
2022-12-26T04:32:58.206Z,98102.94
2022-12-26T04:35:49.899Z,98114.97
2022-12-26T04:38:39.990Z,98103.91
2022-12-26T04:41:26.135Z,98102.91
2022-12-26T04:44:11.973Z,98107.38
2022-12-26T04:46:45.524Z,98114.41
2022-12-26T04:49:31.738Z,98108.38
2022-12-26T04:52:05.781Z,98110.03
2022-12-26T04:54:36.780Z,98095.97
2022-12-26T04:57:07.389Z,98095.28
2022-12-26T04:59:39.975Z,98101.16
2022-12-26T05:02:23.960Z,98099.19
2022-12-26T05:05:06.475Z,98104.53
2022-12-26T05:07:51.774Z,98110.72
2022-12-26T05:10:26.209Z,98114.50
2022-12-26T05:12:57.836Z,98106.25
2022-12-26T05:15:51.009Z,98112.50
2022-12-26T05:18:33.544Z,98105.41
2022-12-26T05:21:17.707Z,98110.81
2022-12-26T05:24:00.235Z,98105.72
2022-12-26T05:26:42.817Z,98091.13
2022-12-26T05:29:12.820Z,98092.63
2022-12-26T05:31:45.735Z,98095.13
2022-12-26T05:34:17.377Z,98096.41
2022-12-26T05:36:52.743Z,98086.16
2022-12-26T05:39:22.995Z,98088.00
2022-12-26T05:41:53.143Z,98093.50
2022-12-26T05:44:23.061Z,98104.09
2022-12-26T05:46:55.621Z,98099.50
2022-12-26T05:49:25.727Z,98102.16
2022-12-26T05:51:55.675Z,98101.16
2022-12-26T05:54:25.603Z,98098.00
2022-12-26T05:56:56.766Z,98098.38
2022-12-26T05:59:26.736Z,98099.13
2022-12-26T06:01:59.473Z,98089.66
2022-12-26T06:04:30.179Z,98113.22
2022-12-26T06:07:00.121Z,98110.88
2022-12-26T06:09:30.090Z,98112.47
2022-12-26T06:12:00.045Z,98108.94
2022-12-26T06:14:29.941Z,98101.13
2022-12-26T06:17:02.556Z,98099.72
2022-12-26T06:19:32.789Z,98097.97
2022-12-26T06:22:03.486Z,98096.81
2022-12-26T06:24:33.416Z,98110.16
2022-12-26T06:27:03.418Z,98109.72
2022-12-26T06:29:33.372Z,98110.88
2022-12-26T06:32:06.333Z,98110.88
2022-12-26T06:34:36.319Z,98116.72
2022-12-26T06:37:06.456Z,98112.03
2022-12-26T06:39:36.815Z,98112.03
2022-12-26T06:42:07.217Z,98122.22
2022-12-26T06:44:37.366Z,98122.66
2022-12-26T06:47:10.038Z,98117.56
2022-12-26T06:49:40.229Z,98107.75
2022-12-26T06:52:12.115Z,98108.94
2022-12-26T06:54:42.254Z,98113.63
2022-12-26T06:57:14.035Z,98114.22
2022-12-26T06:59:43.969Z,98112.09
2022-12-26T07:02:16.707Z,98104.31
2022-12-26T07:04:46.811Z,98106.47
2022-12-26T07:07:16.763Z,98109.03
2022-12-26T07:09:46.883Z,98118.84
2022-12-26T07:12:20.883Z,98117.66
2022-12-26T07:14:55.467Z,98123.44
2022-12-26T07:17:30.551Z,98114.88
2022-12-26T07:20:00.484Z,98116.44
2022-12-26T07:22:31.222Z,98119.38
2022-12-26T07:25:01.218Z,98118.59
2022-12-26T07:27:31.204Z,98125.00
2022-12-26T07:30:01.221Z,98124.22
2022-12-26T07:32:33.726Z,98117.56
2022-12-26T07:35:03.654Z,98113.41
2022-12-26T07:37:33.665Z,98106.22
2022-12-26T07:40:03.660Z,98119.50
2022-12-26T07:42:33.717Z,98107.00
2022-12-26T07:45:03.700Z,98109.34
2022-12-26T07:47:36.269Z,98107.41
2022-12-26T07:50:07.344Z,98122.88
2022-12-26T07:52:37.360Z,98121.91
2022-12-26T07:55:08.355Z,98127.13
2022-12-26T07:57:48.557Z,98126.97
2022-12-26T08:00:21.634Z,98127.78
2022-12-26T08:02:58.560Z,98130.16
2022-12-26T08:05:32.891Z,98128.38
2022-12-26T08:08:02.896Z,98130.72
2022-12-26T08:10:32.888Z,98130.16
2022-12-26T08:13:02.956Z,98133.44
2022-12-26T08:15:33.005Z,98127.13
2022-12-26T08:18:06.106Z,98131.75
2022-12-26T08:20:39.978Z,98143.19
2022-12-26T08:23:09.924Z,98141.13
2022-12-26T08:25:39.871Z,98134.47
2022-12-26T08:28:10.315Z,98139.69
2022-12-26T08:30:43.289Z,98140.00
2022-12-26T08:33:16.723Z,98138.97
2022-12-26T08:35:46.817Z,98146.88
2022-12-26T08:38:16.768Z,98160.72
2022-12-26T08:40:46.758Z,98170.53
2022-12-26T08:46:09.817Z,98169.59
2022-12-26T08:48:44.139Z,98173.72
2022-12-26T08:51:18.080Z,98178.38
2022-12-26T08:53:49.916Z,98180.97
2022-12-26T08:56:23.392Z,98176.41
2022-12-26T08:58:53.579Z,98195.97
2022-12-26T09:01:26.491Z,98196.56
2022-12-26T09:04:02.415Z,98200.59
2022-12-26T09:06:36.189Z,98210.19
2022-12-26T09:09:08.903Z,98213.94
2022-12-26T09:11:38.888Z,98215.16
2022-12-26T09:14:09.453Z,98218.41
2022-12-26T09:16:51.064Z,98225.47
2022-12-26T09:19:29.738Z,98226.72
2022-12-26T09:22:12.007Z,98233.47
2022-12-26T09:24:41.948Z,98237.25
2022-12-26T09:27:12.974Z,98240.38
2022-12-26T09:29:43.056Z,98249.97
2022-12-26T09:32:12.982Z,98252.63
2022-12-26T09:34:45.643Z,98257.78
2022-12-26T09:37:15.582Z,98264.63
2022-12-26T09:39:46.068Z,98263.13
2022-12-26T09:42:31.736Z,98259.91
2022-12-26T09:45:14.431Z,98260.94
2022-12-26T09:48:02.109Z,98264.66
2022-12-26T09:50:42.881Z,98258.69
2022-12-26T09:53:20.643Z,98262.03
2022-12-26T09:55:58.449Z,98264.41
2022-12-26T09:58:33.828Z,98271.13
2022-12-26T10:01:11.436Z,98271.56
2022-12-26T10:03:45.704Z,98266.38
2022-12-26T10:06:22.740Z,98269.00
2022-12-26T10:09:18.912Z,98279.31
2022-12-26T10:12:09.629Z,98277.63
2022-12-26T10:14:55.077Z,98283.94
2022-12-26T10:17:36.399Z,98282.19
2022-12-26T10:20:24.397Z,98316.31
2022-12-26T10:23:22.707Z,98314.44
2022-12-26T10:25:59.554Z,98315.53
2022-12-26T10:28:39.730Z,98321.63
2022-12-26T10:31:20.252Z,98332.16
2022-12-26T10:33:59.296Z,98337.25
2022-12-26T10:36:36.079Z,98322.09
2022-12-26T10:39:20.796Z,98321.59
2022-12-26T10:41:55.987Z,98320.63
2022-12-26T10:44:27.997Z,98318.97
2022-12-26T10:47:24.849Z,98322.00
2022-12-26T10:49:59.883Z,98334.28
2022-12-26T10:52:36.679Z,98334.09
2022-12-26T10:55:27.455Z,98346.13
2022-12-26T10:58:06.484Z,98336.34
2022-12-26T11:00:37.741Z,98337.31
2022-12-26T11:03:12.596Z,98338.63
2022-12-26T11:08:43.715Z,98328.09
2022-12-26T11:11:45.688Z,98339.88
2022-12-26T11:14:34.736Z,98350.72
2022-12-26T11:17:09.645Z,98340.97
2022-12-26T11:19:42.220Z,98337.69
2022-12-26T11:22:27.712Z,98320.13
2022-12-26T11:25:20.011Z,98299.47
2022-12-26T11:27:55.688Z,98309.66
2022-12-26T11:30:33.906Z,98295.28
2022-12-26T11:33:18.861Z,98269.06
2022-12-26T11:35:53.922Z,98273.38
2022-12-26T11:38:44.910Z,98278.94
2022-12-26T11:41:36.734Z,98292.66
2022-12-26T11:44:25.397Z,98318.28
2022-12-26T11:47:01.755Z,98326.81
2022-12-26T11:49:38.240Z,98322.56
2022-12-26T11:52:48.660Z,98320.75
2022-12-26T11:55:35.594Z,98319.25
2022-12-26T11:58:21.412Z,98305.09
2022-12-26T12:01:18.269Z,98311.72
2022-12-26T12:03:51.503Z,98240.75
2022-12-26T12:06:53.917Z,98287.34
2022-12-26T12:09:40.347Z,98290.19
2022-12-26T12:12:21.298Z,98262.19
2022-12-26T12:15:04.134Z,98249.66
2022-12-26T12:17:51.344Z,98294.84
2022-12-26T12:20:35.216Z,98295.84
2022-12-26T12:23:42.305Z,98311.13
2022-12-26T12:26:21.016Z,98318.16
2022-12-26T12:29:22.200Z,98317.50
2022-12-26T12:32:10.819Z,98309.97
2022-12-26T12:35:22.093Z,98293.63
2022-12-26T12:38:17.029Z,98279.13
2022-12-26T12:41:00.738Z,98297.75
2022-12-26T12:43:45.858Z,98296.69
2022-12-26T12:46:31.501Z,98300.94
2022-12-26T12:49:38.901Z,98289.44
2022-12-26T12:52:29.755Z,98292.63
2022-12-26T12:55:45.983Z,98304.72
2022-12-26T12:58:29.036Z,98302.47
2022-12-26T13:01:07.991Z,98293.31
2022-12-26T13:03:49.298Z,98296.75
2022-12-26T13:06:28.691Z,98297.81
2022-12-26T13:09:08.396Z,98298.47
2022-12-26T13:11:47.623Z,98298.66
2022-12-26T13:14:25.259Z,98295.72
2022-12-26T13:17:03.557Z,98296.75
2022-12-26T13:19:42.356Z,98298.84
2022-12-26T13:22:21.147Z,98293.09
2022-12-26T13:24:59.271Z,98298.38
2022-12-26T13:27:35.894Z,98298.56
2022-12-26T13:30:16.486Z,98284.47
2022-12-26T13:32:48.048Z,98274.28
2022-12-26T13:35:56.262Z,98262.88
2022-12-26T13:38:29.471Z,98270.94
2022-12-26T13:41:19.104Z,98256.84
2022-12-26T13:44:04.655Z,98254.63
2022-12-26T13:46:58.074Z,98268.16
2022-12-26T13:49:39.098Z,98272.13
2022-12-26T13:52:35.658Z,98280.41
2022-12-26T13:55:32.792Z,98270.19
2022-12-26T13:58:48.612Z,98275.13
2022-12-26T14:01:46.481Z,98259.47
2022-12-26T14:04:43.828Z,98265.47
2022-12-26T14:07:33.004Z,98276.09
2022-12-26T14:10:15.746Z,98281.94
2022-12-26T14:13:09.058Z,98263.91
2022-12-26T14:15:56.303Z,98254.69
2022-12-26T14:18:50.185Z,98260.81
2022-12-26T14:21:50.607Z,98267.25
2022-12-26T14:24:34.616Z,98260.22
2022-12-26T14:27:30.817Z,98272.34
2022-12-26T14:30:22.055Z,98268.59
2022-12-26T14:33:17.608Z,98261.28
2022-12-26T14:36:01.663Z,98256.44
2022-12-26T14:38:52.993Z,98262.16
2022-12-26T14:41:38.627Z,98239.41
2022-12-26T14:44:46.503Z,98261.28
2022-12-26T14:47:44.009Z,98266.38
2022-12-26T14:50:45.952Z,98261.53
2022-12-26T14:53:35.006Z,98258.25
2022-12-26T14:56:26.669Z,98256.69
2022-12-26T14:59:31.318Z,98258.63
2022-12-26T15:02:33.443Z,98247.25
2022-12-26T15:05:17.066Z,98249.72
2022-12-26T15:08:21.369Z,98271.03
2022-12-26T15:11:33.024Z,98262.38
2022-12-26T15:14:58.091Z,98253.28
2022-12-26T15:17:42.642Z,98245.03
2022-12-26T15:20:53.830Z,98231.38
2022-12-26T15:24:10.619Z,98224.88
2022-12-26T15:27:26.184Z,98223.31
2022-12-26T15:30:24.287Z,98235.44
2022-12-26T15:33:05.648Z,98249.72
2022-12-26T15:35:46.751Z,98247.81
2022-12-26T15:38:36.563Z,98260.94
2022-12-26T15:41:16.685Z,98257.88
2022-12-26T15:44:22.223Z,98265.16
2022-12-26T15:47:13.269Z,98257.88
2022-12-26T15:49:59.981Z,98259.81
2022-12-26T15:52:48.818Z,98258.97
2022-12-26T15:55:45.843Z,98245.13
2022-12-26T15:58:42.177Z,98243.47
2022-12-26T16:01:14.500Z,98260.84
2022-12-26T16:03:55.777Z,98259.97
2022-12-26T16:06:48.557Z,98253.31
2022-12-26T16:09:45.165Z,98256.00
2022-12-26T16:12:28.859Z,98260.94
2022-12-26T16:15:20.353Z,98261.13
2022-12-26T16:17:50.349Z,98261.84
2022-12-26T16:20:46.203Z,98253.06
2022-12-26T16:23:21.030Z,98254.78
2022-12-26T16:25:52.786Z,98254.31
2022-12-26T16:28:28.947Z,98253.81
2022-12-26T16:31:00.921Z,98244.59
2022-12-26T16:33:35.480Z,98248.69
2022-12-26T16:36:09.915Z,98254.81
2022-12-26T16:38:41.136Z,98254.72
2022-12-26T16:41:24.025Z,98264.84
2022-12-26T16:43:58.231Z,98263.34
2022-12-26T16:46:32.798Z,98270.81
2022-12-26T16:49:04.916Z,98267.66
2022-12-26T16:51:50.367Z,98275.50
2022-12-26T16:54:42.430Z,98267.47
2022-12-26T16:57:20.922Z,98280.19
2022-12-26T16:59:57.142Z,98285.91
2022-12-26T17:02:33.596Z,98266.16
2022-12-26T17:05:07.692Z,98281.16
2022-12-26T17:07:47.360Z,98262.72
2022-12-26T17:10:24.770Z,98261.75
2022-12-26T17:12:55.870Z,98264.56
2022-12-26T17:15:31.425Z,98261.34
2022-12-26T17:18:03.081Z,98264.69
2022-12-26T17:20:41.865Z,98263.22
2022-12-26T17:23:42.180Z,98275.97
2022-12-26T17:26:26.704Z,98288.84
2022-12-26T17:28:56.759Z,98290.53
2022-12-26T17:31:37.195Z,98298.38
2022-12-26T17:34:18.335Z,98292.31
2022-12-26T17:39:40.966Z,98281.22
2022-12-26T17:42:11.140Z,98288.31
2022-12-26T17:44:44.576Z,98282.56
2022-12-26T17:47:25.089Z,98282.22
2022-12-26T17:49:57.670Z,98279.94
2022-12-26T17:52:31.413Z,98284.84
2022-12-26T17:55:18.338Z,98297.66
2022-12-26T17:57:48.687Z,98303.41
2022-12-26T18:00:22.310Z,98309.81
2022-12-26T18:02:53.359Z,98315.69
2022-12-26T18:05:24.377Z,98328.97
2022-12-26T18:07:55.637Z,98334.88
2022-12-26T18:10:33.156Z,98342.38
2022-12-26T18:13:03.517Z,98352.09
2022-12-26T18:15:34.583Z,98360.94
2022-12-26T18:18:06.516Z,98362.91
2022-12-26T18:20:36.444Z,98363.13
2022-12-26T18:23:13.422Z,98364.59
2022-12-26T18:25:50.223Z,98355.91
2022-12-26T18:28:22.865Z,98360.16
2022-12-26T18:30:52.787Z,98368.41
2022-12-26T18:33:22.781Z,98369.22
2022-12-26T18:35:53.021Z,98387.50
2022-12-26T18:38:24.307Z,98395.94
2022-12-26T18:40:58.082Z,98394.81
2022-12-26T18:43:28.065Z,98396.59
2022-12-26T18:45:58.216Z,98393.06
2022-12-26T18:48:28.233Z,98410.38
2022-12-26T18:50:58.165Z,98415.91
2022-12-26T18:53:28.088Z,98412.94
2022-12-26T18:56:00.821Z,98399.81
2022-12-26T18:58:31.056Z,98401.59
2022-12-26T19:01:03.493Z,98438.06
2022-12-26T19:03:33.463Z,98433.94
2022-12-26T19:06:03.744Z,98421.75
2022-12-26T19:08:34.298Z,98430.31
2022-12-26T19:11:07.302Z,98419.53
2022-12-26T19:13:37.258Z,98426.22
2022-12-26T19:16:08.363Z,98423.03
2022-12-26T19:18:38.427Z,98432.22
2022-12-26T19:21:13.897Z,98438.56
2022-12-26T19:23:44.731Z,98440.13
2022-12-26T19:26:19.975Z,98456.00
2022-12-26T19:28:54.952Z,98462.81
2022-12-26T19:31:26.126Z,98472.47
2022-12-26T19:33:56.131Z,98463.44
2022-12-26T19:36:26.111Z,98472.16
2022-12-26T19:38:56.637Z,98470.22
2022-12-26T19:41:29.215Z,98484.19
2022-12-26T19:44:00.249Z,98476.91
2022-12-26T19:46:31.042Z,98480.69
2022-12-26T19:49:01.154Z,98482.59
2022-12-26T19:51:31.171Z,98488.63
2022-12-26T19:54:01.179Z,98490.22
2022-12-26T19:56:33.741Z,98496.88
2022-12-26T19:59:03.883Z,98517.78
2022-12-26T20:01:35.360Z,98534.28
2022-12-26T20:04:08.644Z,98551.88
2022-12-26T20:06:40.666Z,98556.16
2022-12-26T20:09:14.736Z,98566.59
2022-12-26T20:11:54.111Z,98562.50
2022-12-26T20:14:26.651Z,98569.16
2022-12-26T20:17:08.231Z,98568.34
2022-12-26T20:19:39.740Z,98578.50
2022-12-26T20:22:10.249Z,98589.72
2022-12-26T20:24:40.422Z,98593.53
2022-12-26T20:27:13.704Z,98595.28
2022-12-26T20:29:43.720Z,98594.78
2022-12-26T20:32:13.768Z,98604.94
2022-12-26T20:34:44.018Z,98608.09
2022-12-26T20:37:15.170Z,98609.81
2022-12-26T20:39:45.157Z,98621.03
2022-12-26T20:42:17.688Z,98624.19
2022-12-26T20:44:47.728Z,98622.94
2022-12-26T20:47:17.651Z,98629.31
2022-12-26T20:49:47.695Z,98633.06
2022-12-26T20:52:18.580Z,98635.59
2022-12-26T20:54:48.609Z,98634.97
2022-12-26T20:57:21.490Z,98642.56
2022-12-26T20:59:51.834Z,98644.78
2022-12-26T21:02:21.967Z,98645.44
2022-12-26T21:04:52.118Z,98656.53
2022-12-26T21:07:22.760Z,98656.03
2022-12-26T21:09:52.787Z,98658.09
2022-12-26T21:12:26.750Z,98668.41
2022-12-26T21:14:56.771Z,98675.22
2022-12-26T21:17:27.674Z,98687.59
2022-12-26T21:19:57.688Z,98689.53
2022-12-26T21:22:28.626Z,98690.13
2022-12-26T21:24:58.612Z,98687.78
2022-12-26T21:27:31.157Z,98700.44
2022-12-26T21:30:01.093Z,98707.09
2022-12-26T21:32:31.265Z,98711.97
2022-12-26T21:35:01.676Z,98706.78
2022-12-26T21:37:44.241Z,98707.22
2022-12-26T21:40:15.301Z,98709.41
2022-12-26T21:42:49.170Z,98717.66
2022-12-26T21:45:19.780Z,98720.81
2022-12-26T21:47:49.737Z,98732.38
2022-12-26T21:50:19.975Z,98733.72
2022-12-26T21:52:50.132Z,98734.63
2022-12-26T21:55:26.962Z,98739.13
2022-12-26T21:58:03.937Z,98731.94
2022-12-26T22:00:35.775Z,98752.63
2022-12-26T22:03:20.548Z,98757.03
2022-12-26T22:05:50.741Z,98761.91
2022-12-26T22:08:20.737Z,98763.31
2022-12-26T22:11:15.665Z,98761.97
2022-12-26T22:13:49.508Z,98769.13
2022-12-26T22:16:19.966Z,98769.03
2022-12-26T22:18:51.010Z,98772.78
2022-12-26T22:21:24.135Z,98784.03
2022-12-26T22:23:56.562Z,98776.63
2022-12-26T22:26:26.872Z,98777.06
2022-12-26T22:29:00.112Z,98789.75
2022-12-26T22:31:33.913Z,98794.28
2022-12-26T22:34:07.296Z,98791.66
2022-12-26T22:36:39.097Z,98800.47
2022-12-26T22:39:09.134Z,98804.09
2022-12-26T22:41:39.131Z,98806.66
2022-12-26T22:44:17.866Z,98807.72
2022-12-26T22:46:47.834Z,98807.69
2022-12-26T22:49:17.781Z,98813.31
2022-12-26T22:51:47.775Z,98814.63
2022-12-26T22:54:17.739Z,98816.84
2022-12-26T22:56:47.685Z,98818.81
2022-12-26T22:59:49.313Z,98820.16
2022-12-26T23:02:10.294Z,98826.25
2022-12-26T23:04:41.603Z,98822.41
2022-12-26T23:07:21.632Z,98826.78
2022-12-26T23:09:52.516Z,98833.47
2022-12-26T23:12:36.268Z,98834.66
2022-12-26T23:15:13.426Z,98845.75
2022-12-26T23:18:04.464Z,98849.25
2022-12-26T23:20:52.175Z,98850.91
2022-12-26T23:23:23.086Z,98859.69
2022-12-26T23:25:53.326Z,98856.81
2022-12-26T23:28:35.781Z,98871.97
2022-12-26T23:31:08.684Z,98858.50
2022-12-26T23:33:38.786Z,98865.06
2022-12-26T23:36:10.712Z,98871.22
2022-12-26T23:38:40.791Z,98877.88
2022-12-26T23:41:10.810Z,98880.25
2022-12-26T23:43:40.960Z,98878.66
2022-12-26T23:46:14.468Z,98884.09
2022-12-26T23:48:44.443Z,98886.34
2022-12-26T23:51:14.435Z,98899.13
2022-12-26T23:53:44.503Z,98893.81
2022-12-26T23:56:14.485Z,98906.31
2022-12-26T23:58:44.546Z,98906.31
